Time;durP1;ratioP1;P1;durP2;ratioP2;P2;SDS_P1;SDS_P2;PMS_P1;PMS_P2;Temp;Humidity;BMP_temperature;BMP_pressure;BME280_temperature;BME280_humidity;BME280_pressure;Samples;Min_cycle;Max_cycle;Signal;HPM_P1;HPM_P2
2023/07/27 00:01:53;;;;;;;0.90;0.60;;;14.90;1.00;;;;;;5054244;28;20437;-55
2023/07/27 00:04:22;;;;;;;0.95;0.60;;;14.90;1.00;;;;;;5053861;28;20445;-56
2023/07/27 00:06:49;;;;;;;1.20;0.60;;;14.90;1.00;;;;;;5054147;28;20429;-56
2023/07/27 00:09:16;;;;;;;0.98;0.50;;;14.90;1.00;;;;;;5054429;28;20421;-54
2023/07/27 00:11:43;;;;;;;0.80;0.60;;;15.00;1.00;;;;;;5054063;28;20425;-55
2023/07/27 00:14:10;;;;;;;0.80;0.50;;;14.90;1.00;;;;;;5053524;28;20433;-55
2023/07/27 00:16:37;;;;;;;1.20;0.70;;;14.80;1.00;;;;;;5053902;28;20425;-54
2023/07/27 00:19:06;;;;;;;0.98;0.70;;;14.80;1.00;;;;;;5053955;28;20425;-56
2023/07/27 00:21:33;;;;;;;1.10;0.60;;;14.90;1.00;;;;;;5053554;28;20433;-54
2023/07/27 00:24:00;;;;;;;1.85;0.60;;;14.90;1.00;;;;;;5053618;28;20483;-57
2023/07/27 00:26:27;;;;;;;0.90;0.60;;;14.90;1.00;;;;;;5053942;28;20495;-54
2023/07/27 00:28:54;;;;;;;0.90;0.60;;;14.80;1.00;;;;;;5045926;28;20429;-56
2023/07/27 00:31:21;;;;;;;0.88;0.60;;;14.80;1.00;;;;;;5053968;28;20796;-56
2023/07/27 00:33:48;;;;;;;1.00;0.60;;;14.80;1.00;;;;;;5047703;28;20427;-57
2023/07/27 00:36:16;;;;;;;0.90;0.60;;;14.80;1.00;;;;;;5051508;28;20417;-57
2023/07/27 00:38:43;;;;;;;1.20;0.60;;;14.80;1.00;;;;;;5053576;28;20482;-55
2023/07/27 00:41:10;;;;;;;3.60;0.60;;;14.80;1.00;;;;;;5053490;28;20491;-55
2023/07/27 00:43:37;;;;;;;1.40;0.60;;;14.80;1.00;;;;;;5053796;28;20487;-55
2023/07/27 00:46:04;;;;;;;1.00;0.70;;;14.70;1.00;;;;;;5054122;28;20429;-51
2023/07/27 00:48:31;;;;;;;1.10;0.70;;;14.70;1.00;;;;;;5053409;28;20484;-53
2023/07/27 00:50:58;;;;;;;1.00;0.60;;;14.60;1.00;;;;;;5054005;28;20726;-54
2023/07/27 00:53:27;;;;;;;0.98;0.70;;;14.60;1.00;;;;;;5054052;28;20792;-57
2023/07/27 00:55:54;;;;;;;1.20;0.60;;;14.60;1.00;;;;;;5056847;28;20428;-54
2023/07/27 00:58:21;;;;;;;0.90;0.70;;;14.50;1.00;;;;;;5049254;28;20431;-49
2023/07/27 01:00:48;;;;;;;0.80;0.60;;;14.50;1.00;;;;;;5057094;28;20433;-55
2023/07/27 01:03:15;;;;;;;0.90;0.60;;;14.50;1.00;;;;;;5056234;28;20420;-54
2023/07/27 01:05:42;;;;;;;3.20;0.70;;;14.50;1.00;;;;;;5050544;28;20911;-54
2023/07/27 01:08:09;;;;;;;1.00;0.60;;;14.40;1.00;;;;;;5057123;28;20433;-55
2023/07/27 01:10:50;;;;;;;1.10;0.60;;;14.40;1.00;;;;;;5057393;28;20487;-56
2023/07/27 01:13:24;;;;;;;0.90;0.60;;;14.50;1.00;;;;;;5048874;28;20435;-56
2023/07/27 01:15:58;;;;;;;1.50;0.70;;;14.50;1.00;;;;;;5057184;28;20495;-55
2023/07/27 01:18:31;;;;;;;1.05;0.60;;;14.60;1.00;;;;;;5054503;28;20483;-53
2023/07/27 01:21:11;;;;;;;0.82;0.60;;;14.60;1.00;;;;;;5052347;28;20479;-57
2023/07/27 01:23:59;;;;;;;1.00;0.60;;;14.60;1.00;;;;;;5056876;28;20491;-56
2023/07/27 01:26:52;;;;;;;1.45;0.60;;;14.60;1.00;;;;;;5057281;28;20439;-56
2023/07/27 01:29:34;;;;;;;0.70;0.60;;;14.60;1.00;;;;;;5057080;28;20425;-54
2023/07/27 01:32:03;;;;;;;1.30;0.60;;;14.60;1.00;;;;;;5056734;28;20737;-54
2023/07/27 01:34:33;;;;;;;1.00;0.70;;;14.60;1.00;;;;;;5057131;28;20721;-55
2023/07/27 01:37:04;;;;;;;1.60;0.60;;;14.60;1.00;;;;;;5056233;28;20468;-56
2023/07/27 01:39:35;;;;;;;1.00;0.60;;;14.60;1.00;;;;;;5056893;28;20433;-54
2023/07/27 01:42:04;;;;;;;1.15;0.60;;;14.50;1.00;;;;;;5057079;28;20421;-57
2023/07/27 01:44:33;;;;;;;0.90;0.60;;;14.50;1.00;;;;;;5055076;28;20772;-53
2023/07/27 01:47:05;;;;;;;0.80;0.60;;;14.50;1.00;;;;;;5056071;28;20848;-56
2023/07/27 01:49:34;;;;;;;1.20;0.60;;;14.40;1.00;;;;;;5048205;28;20433;-56
2023/07/27 01:52:03;;;;;;;0.90;0.60;;;14.40;1.00;;;;;;5056024;28;20436;-55
2023/07/27 01:54:31;;;;;;;0.80;0.60;;;14.40;1.00;;;;;;5056182;28;20695;-54
2023/07/27 01:56:59;;;;;;;1.25;0.50;;;14.40;1.00;;;;;;5054815;28;20424;-56
2023/07/27 01:59:27;;;;;;;1.00;0.50;;;14.40;1.00;;;;;;5054924;28;20429;-55
2023/07/27 02:01:54;;;;;;;1.63;0.65;;;14.50;1.00;;;;;;5055152;28;20479;-55
2023/07/27 02:04:24;;;;;;;1.60;0.60;;;14.50;1.00;;;;;;5055632;28;20495;-55
2023/07/27 02:06:51;;;;;;;1.10;0.60;;;14.50;1.00;;;;;;5055309;28;20464;-53
2023/07/27 02:09:18;;;;;;;0.80;0.52;;;14.50;1.00;;;;;;5054328;28;20520;-55
2023/07/27 02:11:49;;;;;;;0.90;0.60;;;14.50;1.00;;;;;;5049185;28;20420;-55
2023/07/27 02:14:39;;;;;;;1.00;0.50;;;14.50;1.00;;;;;;5055718;28;20434;-55
2023/07/27 02:17:12;;;;;;;1.30;0.50;;;14.60;1.00;;;;;;5056186;28;20433;-55
2023/07/27 02:19:43;;;;;;;1.40;0.60;;;14.60;1.00;;;;;;5055921;28;20433;-54
2023/07/27 02:22:11;;;;;;;0.77;0.43;;;14.60;1.00;;;;;;5055631;28;20524;-57
2023/07/27 02:24:39;;;;;;;0.95;0.60;;;14.60;1.00;;;;;;5055468;28;20460;-58
2023/07/27 02:27:07;;;;;;;0.90;0.60;;;14.60;1.00;;;;;;5055743;28;20483;-56
2023/07/27 02:29:34;;;;;;;0.93;0.60;;;14.60;1.00;;;;;;5055875;28;20421;-57
2023/07/27 02:32:00;;;;;;;1.20;0.50;;;14.70;1.00;;;;;;5055722;28;20784;-57
2023/07/27 02:34:28;;;;;;;0.70;0.50;;;14.70;1.00;;;;;;5055461;28;20800;-58
2023/07/27 02:36:56;;;;;;;1.20;0.50;;;14.60;1.00;;;;;;5055275;28;20764;-57
2023/07/27 02:39:23;;;;;;;0.90;0.60;;;14.50;1.00;;;;;;5054869;28;20478;-54
2023/07/27 02:41:50;;;;;;;0.80;0.50;;;14.60;1.00;;;;;;5055203;28;20432;-55
2023/07/27 02:44:17;;;;;;;1.00;0.60;;;14.60;1.00;;;;;;5055233;28;20499;-56
2023/07/27 02:46:44;;;;;;;0.80;0.50;;;14.60;1.00;;;;;;5055661;28;20853;-54
2023/07/27 02:49:11;;;;;;;0.70;0.50;;;14.70;1.00;;;;;;5055151;28;20441;-54
2023/07/27 02:51:38;;;;;;;0.80;0.50;;;14.80;1.00;;;;;;5051078;28;20454;-55
2023/07/27 02:54:08;;;;;;;0.88;0.57;;;15.00;1.00;;;;;;5051897;28;20441;-55
2023/07/27 02:56:35;;;;;;;0.80;0.50;;;15.00;1.00;;;;;;5055657;28;20780;-55
2023/07/27 02:59:02;;;;;;;1.10;0.55;;;15.10;1.00;;;;;;5055572;28;20502;-55
2023/07/27 03:01:29;;;;;;;0.88;0.50;;;15.10;1.00;;;;;;5055043;28;20495;-54
2023/07/27 03:03:56;;;;;;;0.90;0.50;;;15.10;1.00;;;;;;5048364;28;20431;-56
2023/07/27 03:06:23;;;;;;;1.30;0.70;;;15.10;1.00;;;;;;5054034;28;20784;-51
2023/07/27 03:08:50;;;;;;;0.88;0.50;;;15.20;1.00;;;;;;5055159;28;20467;-55
2023/07/27 03:11:18;;;;;;;0.90;0.50;;;15.30;1.00;;;;;;5055053;28;20429;-54
2023/07/27 03:13:46;;;;;;;1.40;0.50;;;15.40;1.00;;;;;;5054746;28;20429;-55
2023/07/27 03:16:13;;;;;;;0.70;0.50;;;15.50;1.00;;;;;;5054897;28;20542;-53
2023/07/27 03:18:40;;;;;;;0.70;0.50;;;15.50;1.00;;;;;;5049955;28;20434;-55
2023/07/27 03:21:07;;;;;;;1.35;0.60;;;15.40;1.00;;;;;;5051147;28;20421;-55
2023/07/27 03:23:34;;;;;;;1.27;0.50;;;15.50;1.00;;;;;;5054594;28;20464;-52
2023/07/27 03:26:01;;;;;;;1.03;0.50;;;15.50;99.90;;;;;;5054902;28;20794;-56
2023/07/27 03:28:29;;;;;;;0.70;0.50;;;15.40;1.00;;;;;;5054853;28;20472;-55
2023/07/27 03:30:56;;;;;;;1.50;0.60;;;15.40;1.00;;;;;;5054700;28;20433;-57
2023/07/27 03:33:23;;;;;;;0.90;0.50;;;15.40;1.00;;;;;;5054803;28;20437;-55
2023/07/27 03:35:50;;;;;;;1.80;0.50;;;15.40;1.00;;;;;;5054827;28;20429;-55
2023/07/27 03:38:17;;;;;;;0.70;0.50;;;15.50;1.00;;;;;;5054934;28;20483;-55
2023/07/27 03:40:44;;;;;;;0.70;0.50;;;15.50;1.00;;;;;;5054176;28;20491;-56
2023/07/27 03:43:11;;;;;;;0.80;0.50;;;15.50;1.00;;;;;;5053539;28;20483;-52
2023/07/27 03:45:40;;;;;;;1.55;0.50;;;15.40;1.00;;;;;;5047147;28;20652;-54
2023/07/27 03:48:07;;;;;;;0.80;0.50;;;15.40;1.00;;;;;;5055004;28;20440;-57
2023/07/27 03:50:34;;;;;;;0.80;0.50;;;15.40;1.00;;;;;;5053696;28;20795;-49
2023/07/27 03:53:00;;;;;;;1.00;0.70;;;15.30;1.00;;;;;;5054171;28;20437;-56
2023/07/27 03:55:27;;;;;;;1.20;0.60;;;15.30;1.00;;;;;;5053876;28;20563;-56
2023/07/27 03:57:54;;;;;;;1.30;0.60;;;15.20;1.00;;;;;;5053387;28;20487;-54
2023/07/27 04:00:21;;;;;;;1.20;0.60;;;15.20;1.00;;;;;;5054016;28;20428;-56
2023/07/27 04:02:50;;;;;;;0.90;0.60;;;15.30;1.00;;;;;;5053624;28;20796;-56
2023/07/27 04:05:17;;;;;;;1.10;0.60;;;15.30;1.00;;;;;;5053522;28;20739;-54
2023/07/27 04:07:44;;;;;;;0.90;0.60;;;15.30;1.00;;;;;;5054376;28;20433;-57
2023/07/27 04:10:11;;;;;;;0.60;0.43;;;15.20;1.00;;;;;;5053805;28;20421;-56
2023/07/27 04:12:38;;;;;;;0.90;0.60;;;15.20;1.00;;;;;;5053478;28;20486;-57
2023/07/27 04:15:07;;;;;;;0.73;0.50;;;15.20;1.00;;;;;;5053504;28;20429;-57
2023/07/27 04:17:34;;;;;;;0.80;0.60;;;15.20;1.00;;;;;;5054199;28;20499;-57
2023/07/27 04:20:02;;;;;;;0.95;0.60;;;15.20;1.00;;;;;;5052459;28;20429;-57
2023/07/27 04:22:29;;;;;;;1.30;0.60;;;15.30;1.00;;;;;;5052934;28;20464;-57
2023/07/27 04:24:56;;;;;;;0.90;0.60;;;15.30;1.00;;;;;;5053511;28;20491;-58
2023/07/27 04:27:23;;;;;;;0.97;0.50;;;15.30;1.00;;;;;;5054041;28;20429;-58
2023/07/27 04:29:50;;;;;;;1.00;0.60;;;15.30;1.00;;;;;;5054815;28;20491;-59
2023/07/27 04:32:18;;;;;;;1.00;0.70;;;15.30;1.00;;;;;;5057685;28;20490;-58
2023/07/27 04:34:45;;;;;;;1.60;0.60;;;15.30;1.00;;;;;;5057397;28;20432;-57
2023/07/27 04:37:13;;;;;;;1.02;0.60;;;15.30;1.00;;;;;;5055896;28;20494;-58
2023/07/27 04:39:40;;;;;;;1.30;0.50;;;15.30;1.00;;;;;;5049680;28;20433;-57
2023/07/27 04:42:08;;;;;;;1.20;0.60;;;15.40;1.00;;;;;;5057122;28;20429;-58
2023/07/27 04:44:34;;;;;;;0.90;0.60;;;15.40;1.00;;;;;;5056811;28;20540;-58
2023/07/27 04:47:01;;;;;;;0.70;0.50;;;15.40;1.00;;;;;;5055676;28;20433;-58
2023/07/27 04:49:28;;;;;;;0.90;0.75;;;15.40;1.00;;;;;;5056583;28;20726;-58
2023/07/27 04:51:55;;;;;;;0.75;0.50;;;15.50;1.00;;;;;;5057279;28;20922;-58
2023/07/27 04:54:24;;;;;;;1.10;0.50;;;15.50;1.00;;;;;;5057039;28;20455;-57
2023/07/27 04:56:51;;;;;;;0.98;0.63;;;15.40;1.00;;;;;;5057566;28;20437;-58
2023/07/27 04:59:18;;;;;;;2.40;0.70;;;15.50;1.00;;;;;;5057048;28;20443;-57
2023/07/27 05:01:45;;;;;;;1.50;0.70;;;15.50;1.00;;;;;;5057158;28;20436;-58
2023/07/27 05:04:11;;;;;;;0.90;0.67;;;15.40;1.00;;;;;;5056694;28;20429;-56
2023/07/27 05:06:40;;;;;;;1.60;0.50;;;15.50;1.00;;;;;;5055862;28;20417;-58
2023/07/27 05:09:07;;;;;;;0.90;0.60;;;15.60;1.00;;;;;;5055387;28;20880;-57
2023/07/27 05:11:37;;;;;;;0.95;0.60;;;15.60;1.00;;;;;;5055177;28;20516;-57
2023/07/27 05:14:03;;;;;;;1.10;0.60;;;15.60;1.00;;;;;;5054642;28;20664;-57
2023/07/27 05:16:31;;;;;;;1.00;0.57;;;15.60;1.00;;;;;;5054455;28;20429;-58
2023/07/27 05:18:58;;;;;;;1.00;0.60;;;15.60;1.00;;;;;;5055922;28;20425;-58
2023/07/27 05:21:25;;;;;;;0.90;0.60;;;15.70;1.00;;;;;;5056385;28;20432;-57
2023/07/27 05:23:53;;;;;;;1.30;0.50;;;15.80;1.00;;;;;;5057045;28;20436;-58
2023/07/27 05:26:20;;;;;;;0.80;0.50;;;15.80;99.90;;;;;;5055330;28;20695;-58
2023/07/27 05:28:48;;;;;;;0.80;0.50;;;15.90;1.00;;;;;;5050054;28;20431;-57
2023/07/27 05:31:15;;;;;;;0.60;0.50;;;16.00;99.90;;;;;;5061411;28;20425;-58
2023/07/27 05:33:42;;;;;;;0.90;0.50;;;16.10;99.90;;;;;;5068553;28;20626;-58
2023/07/27 05:36:09;;;;;;;0.80;0.60;;;16.10;99.90;;;;;;5073374;28;20731;-59
2023/07/27 05:38:36;;;;;;;0.80;0.50;;;16.10;99.90;;;;;;5072059;28;20496;-58
2023/07/27 05:41:03;;;;;;;0.80;0.50;;;16.30;99.90;;;;;;5072505;28;20531;-56
2023/07/27 05:43:31;;;;;;;2.47;1.33;;;16.30;99.90;;;;;;5065308;28;20427;-57
2023/07/27 05:45:59;;;;;;;0.80;0.50;;;16.30;99.90;;;;;;5056789;28;20488;-58
2023/07/27 05:48:26;;;;;;;1.40;0.70;;;16.50;99.90;;;;;;5054324;28;20816;-58
2023/07/27 05:50:54;;;;;;;1.13;0.52;;;16.50;1.90;;;;;;5055341;28;20527;-58
2023/07/27 05:53:20;;;;;;;0.90;0.50;;;16.60;1.00;;;;;;5055191;28;20430;-58
2023/07/27 05:55:47;;;;;;;1.50;0.50;;;16.70;1.00;;;;;;5054461;28;20773;-57
2023/07/27 05:58:14;;;;;;;0.88;0.50;;;16.70;1.00;;;;;;5053485;28;20425;-57
2023/07/27 06:00:41;;;;;;;1.02;0.50;;;16.70;1.00;;;;;;5054222;28;20788;-57
2023/07/27 06:03:10;;;;;;;0.73;0.50;;;16.70;1.00;;;;;;5029252;28;20933;-58
2023/07/27 06:05:43;;;;;;;0.80;0.50;;;16.70;1.00;;;;;;5048226;28;20468;-57
2023/07/27 06:08:10;;;;;;;1.60;0.50;;;16.70;36.30;;;;;;5049415;28;20509;-57
2023/07/27 06:10:36;;;;;;;1.10;0.70;;;16.70;1.00;;;;;;5045201;28;20946;-57
2023/07/27 06:13:04;;;;;;;0.80;0.50;;;16.80;1.00;;;;;;5050275;28;20491;-56
2023/07/27 06:15:31;;;;;;;1.00;0.50;;;16.90;1.00;;;;;;5053678;28;20426;-57
2023/07/27 06:17:58;;;;;;;0.80;0.50;;;17.00;1.00;;;;;;5048299;28;20441;-58
2023/07/27 06:20:27;;;;;;;0.73;0.50;;;17.10;1.00;;;;;;5050524;28;20445;-56
2023/07/27 06:22:54;;;;;;;1.25;0.50;;;17.10;1.00;;;;;;5041781;28;20460;-58
2023/07/27 06:25:22;;;;;;;1.00;0.50;;;17.10;1.00;;;;;;5046462;28;20429;-58
2023/07/27 06:27:49;;;;;;;1.00;0.50;;;17.10;1.00;;;;;;5052364;28;20425;-57
2023/07/27 06:30:16;;;;;;;0.82;0.50;;;17.10;1.00;;;;;;5031549;28;20525;-58
2023/07/27 06:32:43;;;;;;;0.70;0.40;;;17.20;1.00;;;;;;5038190;28;21348;-57
2023/07/27 06:35:10;;;;;;;0.80;0.50;;;17.20;1.00;;;;;;5049748;28;20471;-57
2023/07/27 06:37:38;;;;;;;1.15;0.45;;;17.30;1.00;;;;;;5046336;28;20441;-58
2023/07/27 06:40:06;;;;;;;0.70;0.50;;;17.40;1.00;;;;;;5051030;28;20428;-58
2023/07/27 06:42:33;;;;;;;0.70;0.47;;;17.50;1.00;;;;;;5052526;28;20429;-57
2023/07/27 06:45:01;;;;;;;0.80;0.43;;;17.70;1.00;;;;;;5057837;28;20538;-58
2023/07/27 06:47:28;;;;;;;0.80;0.50;;;17.70;99.90;;;;;;5064392;28;20476;-57
2023/07/27 06:49:55;;;;;;;0.93;0.50;;;17.70;99.90;;;;;;5052009;28;20421;-56
2023/07/27 06:52:22;;;;;;;1.10;0.50;;;17.60;99.90;;;;;;5067344;28;20427;-57
2023/07/27 06:54:50;;;;;;;0.80;0.40;;;17.60;99.90;;;;;;5070217;28;20428;-55
2023/07/27 06:57:17;;;;;;;2.50;0.40;;;17.70;99.90;;;;;;5071459;28;20862;-56
2023/07/27 06:59:45;;;;;;;0.70;0.50;;;18.00;1.00;;;;;;5067136;28;20435;-56
2023/07/27 07:02:12;;;;;;;0.80;0.50;;;17.90;63.50;;;;;;5071683;28;20431;-57
2023/07/27 07:04:39;;;;;;;0.73;0.52;;;17.90;1.00;;;;;;5065660;28;20738;-56
2023/07/27 07:07:08;;;;;;;1.30;0.50;;;17.70;25.60;;;;;;5070163;28;20510;-56
2023/07/27 07:09:35;;;;;;;1.00;0.55;;;17.80;99.90;;;;;;5069449;28;20467;-57
2023/07/27 07:12:05;;;;;;;0.90;0.50;;;17.80;99.90;;;;;;5071862;28;20427;-57
2023/07/27 07:14:32;;;;;;;1.00;0.50;;;17.70;99.90;;;;;;5064910;28;20870;-55
2023/07/27 07:16:59;;;;;;;0.85;0.47;;;17.90;99.90;;;;;;5069061;28;20435;-57
2023/07/27 07:19:26;;;;;;;0.80;0.50;;;18.00;1.00;;;;;;5070670;28;21216;-58
2023/07/27 07:21:53;;;;;;;0.70;0.50;;;18.10;1.00;;;;;;5060806;28;20421;-56
2023/07/27 07:24:20;;;;;;;0.70;0.50;;;18.10;1.00;;;;;;5049419;28;20486;-58
2023/07/27 07:26:47;;;;;;;0.90;0.50;;;18.20;1.00;;;;;;5046526;28;20859;-58
2023/07/27 07:29:16;;;;;;;0.70;0.50;;;18.40;1.00;;;;;;5050287;28;20913;-58
2023/07/27 07:31:43;;;;;;;1.40;0.50;;;18.40;1.00;;;;;;5048959;28;20444;-56
2023/07/27 07:34:10;;;;;;;1.13;0.60;;;18.30;99.90;;;;;;5050096;28;20441;-57
2023/07/27 07:36:36;;;;;;;0.75;0.50;;;18.30;17.90;;;;;;5051228;28;20425;-57
2023/07/27 07:39:04;;;;;;;0.82;0.60;;;18.30;1.00;;;;;;5046327;28;20507;-57
2023/07/27 07:41:31;;;;;;;0.80;0.50;;;18.40;1.00;;;;;;5047804;28;20491;-58
2023/07/27 07:43:58;;;;;;;0.90;0.57;;;18.50;20.60;;;;;;5030274;28;20438;-58
2023/07/27 07:46:26;;;;;;;0.70;0.50;;;18.40;99.90;;;;;;5034520;28;20796;-57
2023/07/27 07:48:53;;;;;;;0.60;0.43;;;18.40;99.90;;;;;;5047785;28;20563;-58
2023/07/27 07:51:20;;;;;;;0.95;0.40;;;18.30;99.90;;;;;;5048769;28;20441;-58
2023/07/27 07:53:47;;;;;;;0.80;0.50;;;18.30;1.00;;;;;;5049947;28;20507;-58
2023/07/27 07:56:15;;;;;;;1.00;0.50;;;18.30;99.90;;;;;;5048798;28;20441;-58
2023/07/27 07:58:42;;;;;;;0.90;0.50;;;18.30;99.90;;;;;;5049774;28;20503;-58
2023/07/27 08:01:10;;;;;;;1.40;0.50;;;18.30;99.90;;;;;;5052427;28;20479;-59
2023/07/27 08:03:38;;;;;;;1.52;0.57;;;18.30;99.90;;;;;;5051940;28;20436;-58
2023/07/27 08:06:06;;;;;;;1.00;0.50;;;18.10;99.90;;;;;;5051486;28;20433;-59
2023/07/27 08:08:33;;;;;;;0.70;0.50;;;18.10;1.00;;;;;;5050797;28;20441;-57
2023/07/27 08:11:04;;;;;;;0.90;0.50;;;18.00;1.00;;;;;;5050363;28;20444;-58
2023/07/27 08:13:32;;;;;;;1.40;0.50;;;18.10;1.00;;;;;;5048887;28;20432;-57
2023/07/27 08:15:59;;;;;;;0.70;0.50;;;18.20;99.90;;;;;;5051576;28;20439;-58
2023/07/27 08:18:28;;;;;;;0.85;0.50;;;18.30;12.00;;;;;;5049929;28;20516;-58
2023/07/27 08:21:00;;;;;;;1.20;0.50;;;18.30;1.00;;;;;;5052158;28;20447;-58
2023/07/27 08:23:28;;;;;;;0.75;0.50;;;18.30;6.90;;;;;;5053357;28;20441;-57
2023/07/27 08:25:55;;;;;;;0.80;0.47;;;18.40;1.00;;;;;;5052783;28;20536;-58
2023/07/27 08:28:22;;;;;;;1.30;0.50;;;18.50;1.00;;;;;;5056696;28;20474;-58
2023/07/27 08:30:50;;;;;;;2.00;0.60;;;18.50;1.00;;;;;;5054485;28;20464;-58
2023/07/27 08:33:17;;;;;;;0.73;0.50;;;18.50;1.00;;;;;;5050874;28;20440;-58
2023/07/27 08:35:45;;;;;;;0.98;0.50;;;18.60;99.90;;;;;;5050203;28;20440;-58
2023/07/27 08:38:13;;;;;;;1.20;0.50;;;18.50;99.90;;;;;;5050525;28;20749;-59
2023/07/27 08:40:40;;;;;;;0.90;0.50;;;18.60;1.00;;;;;;5050404;28;20445;-58
2023/07/27 08:43:08;;;;;;;0.90;0.50;;;18.60;99.90;;;;;;5048910;28;20491;-58
2023/07/27 08:45:36;;;;;;;0.90;0.50;;;18.70;99.90;;;;;;5064514;28;20439;-58
2023/07/27 08:48:05;;;;;;;1.10;0.40;;;18.80;41.60;;;;;;5071696;28;20423;-58
2023/07/27 08:50:33;;;;;;;1.80;0.50;;;19.00;51.20;;;;;;5070497;28;20808;-58
2023/07/27 08:53:00;;;;;;;1.00;0.50;;;19.10;96.00;;;;;;5068808;28;20443;-57
2023/07/27 08:55:29;;;;;;;1.13;0.50;;;19.20;1.00;;;;;;5070053;28;20439;-58
2023/07/27 08:57:56;;;;;;;1.20;0.60;;;19.20;1.00;;;;;;5070844;28;20804;-57
2023/07/27 09:00:23;;;;;;;1.90;0.50;;;19.00;1.00;;;;;;5074809;28;20442;-58
2023/07/27 09:02:50;;;;;;;1.00;0.60;;;19.00;1.00;;;;;;5071317;28;20442;-57
2023/07/27 09:05:17;;;;;;;1.00;0.50;;;19.00;1.00;;;;;;5067499;28;20436;-58
2023/07/27 09:07:48;;;;;;;0.80;0.50;;;19.10;1.00;;;;;;5072358;28;20787;-57
2023/07/27 09:10:17;;;;;;;0.85;0.50;;;19.00;1.00;;;;;;5072749;28;20671;-57
2023/07/27 09:12:45;;;;;;;1.65;0.50;;;19.00;1.00;;;;;;5068285;28;20456;-57
2023/07/27 09:15:16;;;;;;;1.00;0.60;;;19.00;1.00;;;;;;5070395;28;21104;-57
2023/07/27 09:17:43;;;;;;;0.80;0.50;;;19.00;1.00;;;;;;5073067;28;20427;-59
2023/07/27 09:20:12;;;;;;;0.77;0.50;;;18.90;1.00;;;;;;5075399;28;20439;-57
2023/07/27 09:22:39;;;;;;;1.60;0.60;;;18.90;1.00;;;;;;5070107;28;20973;-59
2023/07/27 09:25:06;;;;;;;1.40;0.60;;;18.80;1.00;;;;;;5069207;28;20937;-59
2023/07/27 09:27:42;;;;;;;1.77;0.60;;;18.90;99.90;;;;;;5072800;28;20739;-59
2023/07/27 09:30:13;;;;;;;1.48;0.50;;;18.90;99.90;;;;;;5071995;28;20471;-59
2023/07/27 09:32:39;;;;;;;0.93;0.50;;;18.80;1.00;;;;;;5072999;28;20443;-59
2023/07/27 09:35:12;;;;;;;0.70;0.50;;;18.80;99.90;;;;;;5072266;28;20932;-59
2023/07/27 09:37:43;;;;;;;0.90;0.50;;;18.70;99.90;;;;;;5075145;28;20509;-59
2023/07/27 09:40:13;;;;;;;0.90;0.50;;;18.60;1.00;;;;;;5073194;28;20434;-59
2023/07/27 09:42:41;;;;;;;0.80;0.57;;;18.60;1.00;;;;;;5071375;28;20484;-58
2023/07/27 09:45:09;;;;;;;2.00;0.50;;;18.70;99.90;;;;;;5068089;28;20873;-59
2023/07/27 09:47:38;;;;;;;0.95;0.60;;;18.70;99.90;;;;;;5073871;28;20518;-58
2023/07/27 09:50:06;;;;;;;0.70;0.50;;;18.80;99.90;;;;;;5073493;28;20431;-58
2023/07/27 09:52:35;;;;;;;0.70;0.50;;;18.60;1.00;;;;;;5072671;28;20431;-58
2023/07/27 09:55:03;;;;;;;1.30;0.60;;;18.50;1.00;;;;;;5071278;28;20435;-59
2023/07/27 09:57:30;;;;;;;0.80;0.50;;;18.60;5.20;;;;;;5070700;28;20439;-56
2023/07/27 09:59:57;;;;;;;1.00;0.65;;;18.70;1.00;;;;;;5070028;28;20439;-58
2023/07/27 10:02:24;;;;;;;1.00;0.50;;;18.60;1.00;;;;;;5061148;28;20433;-57
2023/07/27 10:04:53;;;;;;;0.70;0.50;;;18.60;1.00;;;;;;5070635;28;20427;-57
2023/07/27 10:07:20;;;;;;;3.00;0.60;;;18.70;1.00;;;;;;5071771;28;20427;-56
2023/07/27 10:09:48;;;;;;;1.00;0.70;;;18.70;1.00;;;;;;5070037;28;20427;-58
2023/07/27 10:12:28;;;;;;;0.98;0.60;;;18.70;99.90;;;;;;5069267;28;20428;-58
2023/07/27 10:15:19;;;;;;;1.00;0.60;;;18.70;1.00;;;;;;5060719;28;20439;-57
2023/07/27 10:17:49;;;;;;;0.80;0.50;;;18.70;99.90;;;;;;5071856;28;20438;-59
2023/07/27 10:20:26;;;;;;;0.90;0.50;;;18.70;99.90;;;;;;5060259;28;20493;-57
2023/07/27 10:23:08;;;;;;;0.80;0.50;;;18.80;1.00;;;;;;5071925;28;20912;-59
2023/07/27 10:26:03;;;;;;;1.20;0.65;;;18.70;1.00;;;;;;5067233;28;20431;-58
2023/07/27 10:28:31;;;;;;;1.17;0.60;;;18.80;1.00;;;;;;5068679;28;20538;-58
2023/07/27 10:31:19;;;;;;;0.90;0.55;;;19.00;1.00;;;;;;5053192;28;20781;-58
2023/07/27 10:33:46;;;;;;;1.10;0.60;;;19.10;99.90;;;;;;5066154;28;20506;-58
2023/07/27 10:36:15;;;;;;;0.80;0.50;;;19.30;1.00;;;;;;5062326;28;20421;-58
2023/07/27 10:38:52;;;;;;;1.55;0.60;;;19.40;99.90;;;;;;5053749;28;20421;-59
2023/07/27 10:41:21;;;;;;;1.00;0.60;;;19.40;1.00;;;;;;5072372;28;20446;-58
2023/07/27 10:44:17;;;;;;;1.02;0.60;;;19.40;1.00;;;;;;5059231;28;20598;-58
2023/07/27 10:46:48;;;;;;;0.82;0.60;;;19.60;1.00;;;;;;5070590;28;20441;-59
2023/07/27 10:49:16;;;;;;;0.73;0.50;;;20.00;99.90;;;;;;5066872;28;20874;-57
2023/07/27 10:51:46;;;;;;;0.63;0.50;;;20.00;1.00;;;;;;5066788;28;20438;-58
2023/07/27 10:54:14;;;;;;;1.40;0.52;;;20.10;1.00;;;;;;5072118;28;20415;-58
2023/07/27 10:56:42;;;;;;;1.60;0.60;;;20.10;1.00;;;;;;5066913;28;20917;-58
2023/07/27 10:59:13;;;;;;;0.90;0.60;;;20.10;1.00;;;;;;5065506;28;20507;-58
2023/07/27 11:01:41;;;;;;;0.80;0.50;;;20.20;1.00;;;;;;5069411;28;20937;-59
2023/07/27 11:04:08;;;;;;;0.90;0.50;;;20.30;99.90;;;;;;5066110;28;20435;-59
2023/07/27 11:06:43;;;;;;;0.70;0.50;;;20.40;99.90;;;;;;5057062;28;20443;-59
2023/07/27 11:09:16;;;;;;;1.60;0.50;;;20.40;99.90;;;;;;5068168;28;20424;-59
2023/07/27 11:11:44;;;;;;;1.30;0.50;;;20.50;99.90;;;;;;5066904;28;20641;-58
2023/07/27 11:14:11;;;;;;;1.10;0.60;;;20.70;99.90;;;;;;5064216;28;20453;-59
2023/07/27 11:16:39;;;;;;;1.00;0.60;;;20.90;99.90;;;;;;5056471;28;20437;-59
2023/07/27 11:19:08;;;;;;;0.80;0.50;;;21.00;99.90;;;;;;5066228;28;20493;-58
2023/07/27 11:21:40;;;;;;;1.23;0.50;;;21.00;37.50;;;;;;5065737;28;20437;-58
2023/07/27 11:24:09;;;;;;;0.90;0.50;;;20.90;1.00;;;;;;5062017;28;20526;-58
2023/07/27 11:26:38;;;;;;;1.10;0.60;;;21.00;1.00;;;;;;5068638;28;21041;-61
2023/07/27 11:29:06;;;;;;;0.80;0.50;;;20.90;99.90;;;;;;5071524;28;20475;-59
2023/07/27 11:31:33;;;;;;;1.90;0.50;;;20.90;1.00;;;;;;5071277;28;20455;-59
2023/07/27 11:34:01;;;;;;;1.10;0.50;;;20.90;1.00;;;;;;5070214;28;20488;-58
2023/07/27 11:36:30;;;;;;;1.50;0.50;;;21.00;1.00;;;;;;5072312;28;20428;-58
2023/07/27 11:38:58;;;;;;;0.70;0.40;;;21.10;1.00;;;;;;5072860;28;20529;-59
2023/07/27 11:41:27;;;;;;;1.02;0.50;;;21.10;1.00;;;;;;5071904;28;20646;-59
2023/07/27 11:43:57;;;;;;;0.80;0.50;;;21.10;1.00;;;;;;5069798;28;20438;-58
2023/07/27 11:46:26;;;;;;;1.23;0.50;;;21.20;1.00;;;;;;5070647;28;20915;-58
2023/07/27 11:48:53;;;;;;;0.73;0.50;;;21.20;1.00;;;;;;5071850;28;20462;-58
2023/07/27 11:51:20;;;;;;;1.70;0.43;;;21.20;1.00;;;;;;5072334;28;20419;-60
2023/07/27 11:57:09;;;;;;;0.70;0.50;;;21.30;1.00;;;;;;5071495;28;20643;-60
2023/07/27 11:59:37;;;;;;;0.70;0.40;;;21.40;1.00;;;;;;5070041;28;20423;-59
2023/07/27 12:02:05;;;;;;;0.70;0.40;;;21.50;1.00;;;;;;5069890;28;20431;-58
2023/07/27 12:04:32;;;;;;;1.10;0.50;;;21.70;1.00;;;;;;5070864;28;20437;-58
2023/07/27 12:06:59;;;;;;;1.38;0.50;;;21.50;99.90;;;;;;5071128;28;20428;-59
2023/07/27 12:09:27;;;;;;;0.60;0.47;;;21.50;99.90;;;;;;5071504;28;20431;-58
2023/07/27 12:11:54;;;;;;;0.80;0.50;;;21.50;1.00;;;;;;5069443;28;20628;-58
2023/07/27 12:14:21;;;;;;;1.00;0.50;;;21.50;1.00;;;;;;5068080;28;20880;-57
2023/07/27 12:16:50;;;;;;;0.70;0.40;;;21.40;62.70;;;;;;5069177;28;20797;-58
2023/07/27 12:19:17;;;;;;;1.70;0.50;;;21.10;1.00;;;;;;5069310;28;20416;-58
2023/07/27 12:21:47;;;;;;;1.10;0.47;;;21.00;1.00;;;;;;5070864;28;20426;-57
2023/07/27 12:24:15;;;;;;;0.70;0.50;;;20.80;99.90;;;;;;5070866;28;20739;-57
2023/07/27 12:26:42;;;;;;;0.80;0.47;;;20.70;99.90;;;;;;5070595;28;20506;-57
2023/07/27 12:29:09;;;;;;;0.60;0.40;;;20.60;99.90;;;;;;5069590;28;20457;-58
2023/07/27 12:31:36;;;;;;;1.20;0.50;;;20.50;99.90;;;;;;5070184;28;20431;-57
2023/07/27 12:34:05;;;;;;;0.70;0.40;;;20.50;1.00;;;;;;5070522;28;20411;-57
2023/07/27 12:36:32;;;;;;;0.70;0.50;;;20.60;1.00;;;;;;5070193;28;20419;-57
2023/07/27 12:38:59;;;;;;;0.70;0.40;;;20.50;1.00;;;;;;5071992;28;20427;-56
2023/07/27 12:41:26;;;;;;;0.80;0.50;;;20.50;1.00;;;;;;5072716;28;20496;-55
2023/07/27 12:43:55;;;;;;;0.60;0.50;;;20.50;1.00;;;;;;5069951;28;20481;-54
2023/07/27 12:46:21;;;;;;;1.48;0.50;;;20.50;1.00;;;;;;5069491;28;20427;-55
2023/07/27 12:48:48;;;;;;;0.80;0.50;;;20.40;1.00;;;;;;5069918;28;20771;-50
2023/07/27 12:51:17;;;;;;;1.20;0.50;;;20.40;1.00;;;;;;5071286;28;20504;-55
2023/07/27 12:53:44;;;;;;;1.00;0.60;;;20.30;1.00;;;;;;5074518;28;20423;-50
2023/07/27 12:56:11;;;;;;;1.20;0.50;;;20.20;1.00;;;;;;5074516;28;20566;-55
2023/07/27 12:58:38;;;;;;;1.02;0.60;;;20.20;1.00;;;;;;5074003;28;20485;-53
2023/07/27 13:01:06;;;;;;;0.90;0.50;;;20.20;1.00;;;;;;5066060;28;20437;-54
2023/07/27 13:03:33;;;;;;;1.00;0.60;;;20.40;1.00;;;;;;5075248;28;20506;-54
2023/07/27 13:06:01;;;;;;;0.80;0.50;;;20.60;1.00;;;;;;5075240;28;20758;-56